SAVY/PMY METAR and TAF weather

Enter ICAO airport designator
Station Type Date Time Source
SAVY METAR 2022/04/08 12:30 UTC NOAA

SAVY 081230Z 20004KT 2500 BCFG OVC008 13/12 Q1018


Station Type Date Time Source
SAVY Decoded METAR 2022/04/08 12:30 UTC NOAA

Puerto Madryn, CHT, Argentina (SAVY) 42-45-33S 065-06-10W
Apr 08, 2022 - 08:30 AM EDT / 2022.04.08 1230 UTC
Wind: from the SSW (200 degrees) at 5 MPH (4 KT):0
Visibility: 1 mile(s):0
Sky conditions: overcast
Weather: patches of fog
Temperature: 55 F (13 C)
Dew Point: 53 F (12 C)
Relative Humidity: 93%
Pressure (altimeter): 30.06 in. Hg (1018 hPa)
ob: SAVY 081230Z 20004KT 2500 BCFG OVC008 13/12 Q1018
cycle: 12

Station Type Date Time Source
SAVY TAF UTC NOAA

Error!

Example: see airport list